Flight Number: EUR1140 Duration: 2:00
Departure: Frankfurt Airport (EDDF) at 07:45 Distance: 728 Nm
Arrival: Skopje Airport (LWSK) at 09:45 Equipment: A321

Weather Information
Frankfurt / M-Flughafen, Germany (EDDF) 50-03N 008-36E 113M Nov 19, 2018 - 04:50 PM EST / 2018.11.19 2150 UTC
Wind: from the NE (050 degrees) at 25 MPH (22 KT):0
Visibility: greater than 7 mile(s):0
Sky conditions: mostly cloudy Temperature: 39 F (4 C) Dew Point: 26 F (-3 C) Relative Humidity: 60% Pressure (altimeter): 29.85 in. Hg (1011 hPa)
ob: EDDF 192150Z 05022KT 9999 FEW033 BKN038 04/M03 Q1011 TEMPO 04015G25KT cycle: 22
Sunrise: 06:50 Sunset: 15:32 (UTC)

Skopje-Petrovec, Macedonia, The Republic of (LWSK) 41-58N 021-39E 239M Nov 19, 2018 - 05:00 PM EST / 2018.11.19 2200 UTC
Wind: Calm:0
Visibility: greater than 7 mile(s):0
Sky conditions: overcast Temperature: 39 F (4 C) Dew Point: 37 F (3 C) Relative Humidity: 93% Pressure (altimeter): 30.06 in. Hg (1018 hPa)
ob: LWSK 192200Z 00000KT 9999 SCT023 OVC086 04/03 Q1018 NOSIG cycle: 22
Sunrise: 05:32 Sunset: 15:05 (UTC)

TAF:2018/11/19 21:31 TAF LWSK 192030Z 1921/2021 VRB02KT 9999 BKN025 OVC090 BECMG 1923/2001 12010KT -RA SCT015 BKN035 OVC070 TEMPO 2009/2015 16020KT 5000 RA BKN010 OVC033

Previous Pireps for this route
Date Aircraft Flight time Fuel used Landing rate On time
2012-11-14A32102.1912307-113No
2013-02-27A32102.2018560-524Yes
2013-08-03A32102.2724023-1226No
2014-04-18A32102.0212273-162Yes
2014-07-08A32101.5911689-213Yes
2015-08-24A32102.0511655-189Yes
2016-12-29B73702.0911623-3Charter
(pireps marked green are flown by you)

Route map